Preview of NWS' New Version of Forecast
This preview is not operational and should not be used for support decisions.

Terminal Aerodrome Forecast (TAF)

Issued by National Weather Service (NWS)

                            
000
FTUS42 KKEY 181738
TAFEYW
TAF
KEYW 181738Z 1818/1918 10007KT P6SM SCT020 SCT035 BKN200
      TEMPO 1818/1821 VRB10G20KT 1SM TSRA BKN020CB OVC030
     FM182100 07007KT P6SM VCTS SCT020CB OVC250
     FM190400 11007KT P6SM SCT020 SCT200=